sensor_id;sensor_type;location;lat;lon;timestamp;temperature;humidity
19522;DHT22;9905;52.126;5.596;2024-03-02T00:01:28;9.40;99.90
19522;DHT22;9905;52.126;5.596;2024-03-02T00:03:54;9.40;99.90
19522;DHT22;9905;52.126;5.596;2024-03-02T00:06:23;9.40;99.90
19522;DHT22;9905;52.126;5.596;2024-03-02T00:08:49;9.40;99.90
19522;DHT22;9905;52.126;5.596;2024-03-02T00:11:18;9.40;99.90
19522;DHT22;9905;52.126;5.596;2024-03-02T00:13:45;9.40;99.90
19522;DHT22;9905;52.126;5.596;2024-03-02T00:16:12;9.40;99.90
19522;DHT22;9905;52.126;5.596;2024-03-02T00:18:39;9.40;99.90
19522;DHT22;9905;52.126;5.596;2024-03-02T00:21:06;9.40;99.90
19522;DHT22;9905;52.126;5.596;2024-03-02T00:23:36;9.30;99.90
19522;DHT22;9905;52.126;5.596;2024-03-02T00:26:04;9.30;99.90
19522;DHT22;9905;52.126;5.596;2024-03-02T00:28:33;9.30;99.90
19522;DHT22;9905;52.126;5.596;2024-03-02T00:31:03;9.30;99.90
19522;DHT22;9905;52.126;5.596;2024-03-02T00:33:32;9.30;99.90
19522;DHT22;9905;52.126;5.596;2024-03-02T00:35:59;9.30;99.90
19522;DHT22;9905;52.126;5.596;2024-03-02T00:38:26;9.40;99.90
19522;DHT22;9905;52.126;5.596;2024-03-02T00:40:56;9.30;99.90
19522;DHT22;9905;52.126;5.596;2024-03-02T00:43:43;9.30;99.90
19522;DHT22;9905;52.126;5.596;2024-03-02T00:46:11;9.20;99.90
19522;DHT22;9905;52.126;5.596;2024-03-02T00:48:39;9.20;99.90
19522;DHT22;9905;52.126;5.596;2024-03-02T00:51:06;9.20;99.90
19522;DHT22;9905;52.126;5.596;2024-03-02T00:53:33;9.20;99.90
19522;DHT22;9905;52.126;5.596;2024-03-02T00:56:01;9.20;99.90
19522;DHT22;9905;52.126;5.596;2024-03-02T00:58:28;9.20;99.90
19522;DHT22;9905;52.126;5.596;2024-03-02T01:00:55;9.10;99.90
19522;DHT22;9905;52.126;5.596;2024-03-02T01:03:22;9.10;99.90
19522;DHT22;9905;52.126;5.596;2024-03-02T01:05:49;9.10;99.90
19522;DHT22;9905;52.126;5.596;2024-03-02T01:08:16;9.10;99.90
19522;DHT22;9905;52.126;5.596;2024-03-02T01:10:43;9.10;99.90
19522;DHT22;9905;52.126;5.596;2024-03-02T01:13:11;9.00;99.90
19522;DHT22;9905;52.126;5.596;2024-03-02T01:15:38;8.90;99.90
19522;DHT22;9905;52.126;5.596;2024-03-02T01:18:05;8.80;99.90
19522;DHT22;9905;52.126;5.596;2024-03-02T01:20:31;8.80;99.90
19522;DHT22;9905;52.126;5.596;2024-03-02T01:22:58;8.70;99.90
19522;DHT22;9905;52.126;5.596;2024-03-02T01:25:25;8.70;99.90
19522;DHT22;9905;52.126;5.596;2024-03-02T01:27:52;8.70;99.90
19522;DHT22;9905;52.126;5.596;2024-03-02T01:30:20;8.60;99.90
19522;DHT22;9905;52.126;5.596;2024-03-02T01:32:47;8.60;99.90
19522;DHT22;9905;52.126;5.596;2024-03-02T01:35:13;8.60;99.90
19522;DHT22;9905;52.126;5.596;2024-03-02T01:37:41;8.60;99.90
19522;DHT22;9905;52.126;5.596;2024-03-02T01:40:09;8.60;99.90
19522;DHT22;9905;52.126;5.596;2024-03-02T01:42:36;8.60;99.90
19522;DHT22;9905;52.126;5.596;2024-03-02T01:45:04;8.50;99.90
19522;DHT22;9905;52.126;5.596;2024-03-02T01:47:32;8.40;99.90
19522;DHT22;9905;52.126;5.596;2024-03-02T01:49:59;8.40;99.90
19522;DHT22;9905;52.126;5.596;2024-03-02T01:52:27;8.30;99.90
19522;DHT22;9905;52.126;5.596;2024-03-02T01:54:53;8.30;99.90
19522;DHT22;9905;52.126;5.596;2024-03-02T01:57:20;8.30;99.90
19522;DHT22;9905;52.126;5.596;2024-03-02T01:59:47;8.20;99.90
19522;DHT22;9905;52.126;5.596;2024-03-02T02:02:14;8.20;99.90
19522;DHT22;9905;52.126;5.596;2024-03-02T02:04:42;8.20;99.90
19522;DHT22;9905;52.126;5.596;2024-03-02T02:07:09;8.10;99.90
19522;DHT22;9905;52.126;5.596;2024-03-02T02:09:36;8.10;99.90
19522;DHT22;9905;52.126;5.596;2024-03-02T02:12:04;8.10;99.90
19522;DHT22;9905;52.126;5.596;2024-03-02T02:14:32;8.00;99.90
19522;DHT22;9905;52.126;5.596;2024-03-02T02:16:59;8.00;99.90
19522;DHT22;9905;52.126;5.596;2024-03-02T02:19:25;7.90;99.90
19522;DHT22;9905;52.126;5.596;2024-03-02T02:21:54;7.90;99.90
19522;DHT22;9905;52.126;5.596;2024-03-02T02:24:20;7.90;99.90
19522;DHT22;9905;52.126;5.596;2024-03-02T02:26:47;7.90;99.90
19522;DHT22;9905;52.126;5.596;2024-03-02T02:29:14;7.90;99.90
19522;DHT22;9905;52.126;5.596;2024-03-02T02:31:41;7.90;99.90
19522;DHT22;9905;52.126;5.596;2024-03-02T02:34:08;7.90;99.90
19522;DHT22;9905;52.126;5.596;2024-03-02T02:36:38;7.80;99.90
19522;DHT22;9905;52.126;5.596;2024-03-02T02:39:07;7.80;99.90
19522;DHT22;9905;52.126;5.596;2024-03-02T02:41:36;7.80;99.90
19522;DHT22;9905;52.126;5.596;2024-03-02T02:44:03;7.80;99.90
19522;DHT22;9905;52.126;5.596;2024-03-02T02:46:29;7.80;99.90
19522;DHT22;9905;52.126;5.596;2024-03-02T02:48:56;7.80;99.90
19522;DHT22;9905;52.126;5.596;2024-03-02T02:51:23;7.70;99.90
19522;DHT22;9905;52.126;5.596;2024-03-02T02:53:50;7.70;99.90
19522;DHT22;9905;52.126;5.596;2024-03-02T02:56:19;7.60;99.90
19522;DHT22;9905;52.126;5.596;2024-03-02T02:58:45;7.60;99.90
19522;DHT22;9905;52.126;5.596;2024-03-02T03:01:12;7.60;99.90
19522;DHT22;9905;52.126;5.596;2024-03-02T03:03:39;7.60;99.90
19522;DHT22;9905;52.126;5.596;2024-03-02T03:06:06;7.50;99.90
19522;DHT22;9905;52.126;5.596;2024-03-02T03:08:33;7.50;99.90
19522;DHT22;9905;52.126;5.596;2024-03-02T03:10:59;7.50;99.90
19522;DHT22;9905;52.126;5.596;2024-03-02T03:13:27;7.50;99.90
19522;DHT22;9905;52.126;5.596;2024-03-02T03:15:53;7.50;99.90
19522;DHT22;9905;52.126;5.596;2024-03-02T03:18:20;7.50;99.90
19522;DHT22;9905;52.126;5.596;2024-03-02T03:20:47;7.50;99.90
19522;DHT22;9905;52.126;5.596;2024-03-02T03:23:14;7.40;99.90
19522;DHT22;9905;52.126;5.596;2024-03-02T03:25:41;7.40;99.90
19522;DHT22;9905;52.126;5.596;2024-03-02T03:28:08;7.40;99.90
19522;DHT22;9905;52.126;5.596;2024-03-02T03:30:37;7.40;99.90
19522;DHT22;9905;52.126;5.596;2024-03-02T03:33:05;7.40;99.90
19522;DHT22;9905;52.126;5.596;2024-03-02T03:35:32;7.40;99.90
19522;DHT22;9905;52.126;5.596;2024-03-02T03:37:59;7.40;99.90
19522;DHT22;9905;52.126;5.596;2024-03-02T03:40:26;7.40;99.90
19522;DHT22;9905;52.126;5.596;2024-03-02T03:42:52;7.30;99.90
19522;DHT22;9905;52.126;5.596;2024-03-02T03:45:21;7.40;99.90
19522;DHT22;9905;52.126;5.596;2024-03-02T03:47:49;7.40;99.90
19522;DHT22;9905;52.126;5.596;2024-03-02T03:50:16;7.40;99.90
19522;DHT22;9905;52.126;5.596;2024-03-02T03:52:43;7.30;99.90
19522;DHT22;9905;52.126;5.596;2024-03-02T03:55:09;7.40;99.90
19522;DHT22;9905;52.126;5.596;2024-03-02T03:57:37;7.30;99.90
19522;DHT22;9905;52.126;5.596;2024-03-02T04:00:05;7.30;99.90
19522;DHT22;9905;52.126;5.596;2024-03-02T04:02:32;7.30;99.90
19522;DHT22;9905;52.126;5.596;2024-03-02T04:05:00;7.30;99.90
19522;DHT22;9905;52.126;5.596;2024-03-02T04:07:30;7.30;99.90
19522;DHT22;9905;52.126;5.596;2024-03-02T04:09:57;7.30;99.90
19522;DHT22;9905;52.126;5.596;2024-03-02T04:12:24;7.30;99.90
19522;DHT22;9905;52.126;5.596;2024-03-02T04:14:50;7.30;99.90
19522;DHT22;9905;52.126;5.596;2024-03-02T04:17:17;7.30;99.90
19522;DHT22;9905;52.126;5.596;2024-03-02T04:19:44;7.30;99.90
19522;DHT22;9905;52.126;5.596;2024-03-02T04:22:12;7.30;99.90
19522;DHT22;9905;52.126;5.596;2024-03-02T04:24:39;7.30;99.90
19522;DHT22;9905;52.126;5.596;2024-03-02T04:27:05;7.30;99.90
19522;DHT22;9905;52.126;5.596;2024-03-02T04:29:32;7.30;99.90
19522;DHT22;9905;52.126;5.596;2024-03-02T04:31:59;7.30;99.90
19522;DHT22;9905;52.126;5.596;2024-03-02T04:34:25;7.30;99.90
19522;DHT22;9905;52.126;5.596;2024-03-02T04:36:52;7.30;99.90
19522;DHT22;9905;52.126;5.596;2024-03-02T04:39:20;7.30;99.90
19522;DHT22;9905;52.126;5.596;2024-03-02T04:41:47;7.30;99.90
19522;DHT22;9905;52.126;5.596;2024-03-02T04:44:14;7.30;99.90
19522;DHT22;9905;52.126;5.596;2024-03-02T04:46:41;7.30;99.90
19522;DHT22;9905;52.126;5.596;2024-03-02T04:49:08;7.30;99.90
19522;DHT22;9905;52.126;5.596;2024-03-02T04:51:34;7.30;99.90
19522;DHT22;9905;52.126;5.596;2024-03-02T04:54:01;7.30;99.90
19522;DHT22;9905;52.126;5.596;2024-03-02T04:56:29;7.20;99.90
19522;DHT22;9905;52.126;5.596;2024-03-02T04:59:15;7.20;99.90
19522;DHT22;9905;52.126;5.596;2024-03-02T05:01:42;7.20;99.90
19522;DHT22;9905;52.126;5.596;2024-03-02T05:04:09;7.20;99.90
19522;DHT22;9905;52.126;5.596;2024-03-02T05:06:37;7.20;99.90
19522;DHT22;9905;52.126;5.596;2024-03-02T05:09:04;7.20;99.90
19522;DHT22;9905;52.126;5.596;2024-03-02T05:11:32;7.20;99.90
19522;DHT22;9905;52.126;5.596;2024-03-02T05:14:21;7.20;99.90
19522;DHT22;9905;52.126;5.596;2024-03-02T05:16:48;7.20;99.90
19522;DHT22;9905;52.126;5.596;2024-03-02T05:19:15;7.30;99.90
19522;DHT22;9905;52.126;5.596;2024-03-02T05:21:41;7.30;99.90
19522;DHT22;9905;52.126;5.596;2024-03-02T05:24:08;7.20;99.90
19522;DHT22;9905;52.126;5.596;2024-03-02T05:26:37;7.20;99.90
19522;DHT22;9905;52.126;5.596;2024-03-02T05:29:04;7.30;99.90
19522;DHT22;9905;52.126;5.596;2024-03-02T05:31:30;7.30;99.90
19522;DHT22;9905;52.126;5.596;2024-03-02T05:33:57;7.30;99.90
19522;DHT22;9905;52.126;5.596;2024-03-02T05:36:24;7.30;99.90
19522;DHT22;9905;52.126;5.596;2024-03-02T05:38:51;7.30;99.90
19522;DHT22;9905;52.126;5.596;2024-03-02T05:41:18;7.30;99.90
19522;DHT22;9905;52.126;5.596;2024-03-02T05:43:46;7.30;99.90
19522;DHT22;9905;52.126;5.596;2024-03-02T05:46:12;7.30;99.90
19522;DHT22;9905;52.126;5.596;2024-03-02T05:48:39;7.30;99.90
19522;DHT22;9905;52.126;5.596;2024-03-02T05:51:06;7.40;99.90
19522;DHT22;9905;52.126;5.596;2024-03-02T05:53:33;7.30;99.90
19522;DHT22;9905;52.126;5.596;2024-03-02T05:56:00;7.30;99.90
19522;DHT22;9905;52.126;5.596;2024-03-02T05:58:27;7.40;99.90
19522;DHT22;9905;52.126;5.596;2024-03-02T06:01:09;7.40;99.90
19522;DHT22;9905;52.126;5.596;2024-03-02T06:03:36;7.30;99.90
19522;DHT22;9905;52.126;5.596;2024-03-02T06:06:03;7.30;99.90
19522;DHT22;9905;52.126;5.596;2024-03-02T06:08:31;7.20;99.90
19522;DHT22;9905;52.126;5.596;2024-03-02T06:10:57;7.20;99.90
19522;DHT22;9905;52.126;5.596;2024-03-02T06:13:24;7.10;99.90
19522;DHT22;9905;52.126;5.596;2024-03-02T06:15:52;7.10;99.90
19522;DHT22;9905;52.126;5.596;2024-03-02T06:18:20;7.00;99.90
19522;DHT22;9905;52.126;5.596;2024-03-02T06:20:46;6.90;99.90
19522;DHT22;9905;52.126;5.596;2024-03-02T06:23:14;7.00;99.90
19522;DHT22;9905;52.126;5.596;2024-03-02T06:25:41;6.90;99.90
19522;DHT22;9905;52.126;5.596;2024-03-02T06:28:08;6.80;99.90
19522;DHT22;9905;52.126;5.596;2024-03-02T06:30:35;6.80;99.90
19522;DHT22;9905;52.126;5.596;2024-03-02T06:33:01;6.80;99.90
19522;DHT22;9905;52.126;5.596;2024-03-02T06:35:30;6.70;99.90
19522;DHT22;9905;52.126;5.596;2024-03-02T06:37:57;6.70;99.90
19522;DHT22;9905;52.126;5.596;2024-03-02T06:40:24;6.70;99.90
19522;DHT22;9905;52.126;5.596;2024-03-02T06:42:50;6.60;99.90
19522;DHT22;9905;52.126;5.596;2024-03-02T06:45:17;6.60;99.90
19522;DHT22;9905;52.126;5.596;2024-03-02T06:47:44;6.60;99.90
19522;DHT22;9905;52.126;5.596;2024-03-02T06:50:11;6.60;99.90
19522;DHT22;9905;52.126;5.596;2024-03-02T06:52:39;6.60;99.90
19522;DHT22;9905;52.126;5.596;2024-03-02T06:55:06;6.60;99.90
19522;DHT22;9905;52.126;5.596;2024-03-02T06:57:33;6.60;99.90
19522;DHT22;9905;52.126;5.596;2024-03-02T07:00:00;6.70;99.90
19522;DHT22;9905;52.126;5.596;2024-03-02T07:02:30;6.70;99.90
19522;DHT22;9905;52.126;5.596;2024-03-02T07:04:57;6.70;99.90
19522;DHT22;9905;52.126;5.596;2024-03-02T07:07:24;6.70;99.90
19522;DHT22;9905;52.126;5.596;2024-03-02T07:09:52;6.70;99.90
19522;DHT22;9905;52.126;5.596;2024-03-02T07:12:18;6.70;99.90
19522;DHT22;9905;52.126;5.596;2024-03-02T07:14:45;6.80;99.90
19522;DHT22;9905;52.126;5.596;2024-03-02T07:17:36;6.80;99.90
19522;DHT22;9905;52.126;5.596;2024-03-02T07:20:03;6.80;99.90
19522;DHT22;9905;52.126;5.596;2024-03-02T07:22:32;6.80;99.90
19522;DHT22;9905;52.126;5.596;2024-03-02T07:25:00;6.80;99.90
19522;DHT22;9905;52.126;5.596;2024-03-02T07:27:26;6.90;99.90
19522;DHT22;9905;52.126;5.596;2024-03-02T07:29:53;6.90;99.90
19522;DHT22;9905;52.126;5.596;2024-03-02T07:32:20;7.00;99.90
19522;DHT22;9905;52.126;5.596;2024-03-02T07:34:47;7.00;99.90
19522;DHT22;9905;52.126;5.596;2024-03-02T07:37:13;7.10;99.90
19522;DHT22;9905;52.126;5.596;2024-03-02T07:39:40;7.10;99.90
19522;DHT22;9905;52.126;5.596;2024-03-02T07:42:08;7.20;99.90
19522;DHT22;9905;52.126;5.596;2024-03-02T07:44:35;7.30;99.90
19522;DHT22;9905;52.126;5.596;2024-03-02T07:47:02;7.30;99.90
19522;DHT22;9905;52.126;5.596;2024-03-02T07:49:29;7.40;99.90
19522;DHT22;9905;52.126;5.596;2024-03-02T07:51:55;7.40;99.90
19522;DHT22;9905;52.126;5.596;2024-03-02T07:54:22;7.50;99.90
19522;DHT22;9905;52.126;5.596;2024-03-02T07:56:49;7.60;99.90
19522;DHT22;9905;52.126;5.596;2024-03-02T07:59:17;7.80;99.90
19522;DHT22;9905;52.126;5.596;2024-03-02T08:01:44;8.00;99.90
19522;DHT22;9905;52.126;5.596;2024-03-02T08:04:11;8.10;99.90
19522;DHT22;9905;52.126;5.596;2024-03-02T08:06:41;8.20;99.90
19522;DHT22;9905;52.126;5.596;2024-03-02T08:09:07;8.20;99.90
19522;DHT22;9905;52.126;5.596;2024-03-02T08:11:35;8.20;99.90
19522;DHT22;9905;52.126;5.596;2024-03-02T08:14:02;8.10;99.90
19522;DHT22;9905;52.126;5.596;2024-03-02T08:16:31;8.20;99.90
19522;DHT22;9905;52.126;5.596;2024-03-02T08:18:58;8.20;99.90
19522;DHT22;9905;52.126;5.596;2024-03-02T08:21:25;8.20;99.90
19522;DHT22;9905;52.126;5.596;2024-03-02T08:23:56;8.20;99.90
19522;DHT22;9905;52.126;5.596;2024-03-02T08:26:22;8.20;99.90
19522;DHT22;9905;52.126;5.596;2024-03-02T08:28:49;8.20;99.90
19522;DHT22;9905;52.126;5.596;2024-03-02T08:31:16;8.30;99.90
19522;DHT22;9905;52.126;5.596;2024-03-02T08:33:44;8.20;99.90
19522;DHT22;9905;52.126;5.596;2024-03-02T08:36:11;8.20;99.90
19522;DHT22;9905;52.126;5.596;2024-03-02T08:38:38;8.10;99.90
19522;DHT22;9905;52.126;5.596;2024-03-02T08:41:05;8.20;99.90
19522;DHT22;9905;52.126;5.596;2024-03-02T08:43:32;8.20;99.90
19522;DHT22;9905;52.126;5.596;2024-03-02T08:45:59;8.20;99.90
19522;DHT22;9905;52.126;5.596;2024-03-02T08:48:26;8.30;99.90
19522;DHT22;9905;52.126;5.596;2024-03-02T08:50:54;8.30;99.90
19522;DHT22;9905;52.126;5.596;2024-03-02T08:53:21;8.30;99.90
19522;DHT22;9905;52.126;5.596;2024-03-02T08:55:48;8.40;99.90
19522;DHT22;9905;52.126;5.596;2024-03-02T08:58:15;8.50;99.90
19522;DHT22;9905;52.126;5.596;2024-03-02T09:00:42;8.60;99.90
19522;DHT22;9905;52.126;5.596;2024-03-02T09:03:09;8.70;99.90
19522;DHT22;9905;52.126;5.596;2024-03-02T09:05:35;8.70;99.90
19522;DHT22;9905;52.126;5.596;2024-03-02T09:08:05;8.80;99.90
19522;DHT22;9905;52.126;5.596;2024-03-02T09:10:32;8.80;99.90
19522;DHT22;9905;52.126;5.596;2024-03-02T09:12:59;8.90;99.90
19522;DHT22;9905;52.126;5.596;2024-03-02T09:15:26;8.90;99.90
19522;DHT22;9905;52.126;5.596;2024-03-02T09:17:52;9.00;99.90
19522;DHT22;9905;52.126;5.596;2024-03-02T09:20:19;9.10;99.90
19522;DHT22;9905;52.126;5.596;2024-03-02T09:22:46;9.10;99.90
19522;DHT22;9905;52.126;5.596;2024-03-02T09:25:15;9.10;99.90
19522;DHT22;9905;52.126;5.596;2024-03-02T09:27:42;9.20;99.90
19522;DHT22;9905;52.126;5.596;2024-03-02T09:30:10;9.30;99.90
19522;DHT22;9905;52.126;5.596;2024-03-02T09:32:37;9.50;99.90
19522;DHT22;9905;52.126;5.596;2024-03-02T09:35:04;9.50;99.90
19522;DHT22;9905;52.126;5.596;2024-03-02T09:37:31;9.60;99.90
19522;DHT22;9905;52.126;5.596;2024-03-02T09:39:58;9.70;99.90
19522;DHT22;9905;52.126;5.596;2024-03-02T09:42:26;9.70;99.90
19522;DHT22;9905;52.126;5.596;2024-03-02T09:44:53;9.80;99.90
19522;DHT22;9905;52.126;5.596;2024-03-02T09:47:20;9.80;99.90
19522;DHT22;9905;52.126;5.596;2024-03-02T09:49:47;9.90;99.90
19522;DHT22;9905;52.126;5.596;2024-03-02T09:52:14;9.90;99.90
19522;DHT22;9905;52.126;5.596;2024-03-02T09:54:41;10.10;99.90
19522;DHT22;9905;52.126;5.596;2024-03-02T09:57:08;10.10;99.90
19522;DHT22;9905;52.126;5.596;2024-03-02T09:59:36;10.20;99.90
19522;DHT22;9905;52.126;5.596;2024-03-02T10:02:03;10.30;99.90
19522;DHT22;9905;52.126;5.596;2024-03-02T10:04:33;10.30;99.90
19522;DHT22;9905;52.126;5.596;2024-03-02T10:07:11;10.40;99.90
19522;DHT22;9905;52.126;5.596;2024-03-02T10:09:38;10.30;99.90
19522;DHT22;9905;52.126;5.596;2024-03-02T10:12:06;10.40;99.90
19522;DHT22;9905;52.126;5.596;2024-03-02T10:14:34;10.40;99.90
19522;DHT22;9905;52.126;5.596;2024-03-02T10:17:07;10.50;99.90
19522;DHT22;9905;52.126;5.596;2024-03-02T10:19:34;10.60;99.90
19522;DHT22;9905;52.126;5.596;2024-03-02T10:22:03;10.60;99.90
19522;DHT22;9905;52.126;5.596;2024-03-02T10:24:35;10.80;99.90
19522;DHT22;9905;52.126;5.596;2024-03-02T10:27:07;10.80;99.90
19522;DHT22;9905;52.126;5.596;2024-03-02T10:29:37;10.90;99.90
19522;DHT22;9905;52.126;5.596;2024-03-02T10:32:09;10.90;99.90
19522;DHT22;9905;52.126;5.596;2024-03-02T10:34:36;11.00;99.90
19522;DHT22;9905;52.126;5.596;2024-03-02T10:37:03;11.00;99.90
19522;DHT22;9905;52.126;5.596;2024-03-02T10:39:31;10.90;99.90
19522;DHT22;9905;52.126;5.596;2024-03-02T10:42:02;10.90;99.90
19522;DHT22;9905;52.126;5.596;2024-03-02T10:44:30;10.90;99.90
19522;DHT22;9905;52.126;5.596;2024-03-02T10:46:58;10.90;99.90
19522;DHT22;9905;52.126;5.596;2024-03-02T10:49:29;11.00;99.90
19522;DHT22;9905;52.126;5.596;2024-03-02T10:51:57;11.00;99.90
19522;DHT22;9905;52.126;5.596;2024-03-02T10:54:23;11.10;99.90
19522;DHT22;9905;52.126;5.596;2024-03-02T10:56:59;11.00;99.90
19522;DHT22;9905;52.126;5.596;2024-03-02T10:59:33;11.10;99.90
19522;DHT22;9905;52.126;5.596;2024-03-02T11:02:02;11.10;99.90
19522;DHT22;9905;52.126;5.596;2024-03-02T11:04:31;11.20;99.90
19522;DHT22;9905;52.126;5.596;2024-03-02T11:07:00;11.20;99.90
19522;DHT22;9905;52.126;5.596;2024-03-02T11:09:32;11.30;99.90
19522;DHT22;9905;52.126;5.596;2024-03-02T11:12:03;11.40;99.90
19522;DHT22;9905;52.126;5.596;2024-03-02T11:14:31;11.40;99.90
19522;DHT22;9905;52.126;5.596;2024-03-02T11:17:00;11.50;99.90
19522;DHT22;9905;52.126;5.596;2024-03-02T11:19:30;11.50;99.90
19522;DHT22;9905;52.126;5.596;2024-03-02T11:21:58;11.60;99.90
19522;DHT22;9905;52.126;5.596;2024-03-02T11:24:32;11.60;99.90
19522;DHT22;9905;52.126;5.596;2024-03-02T11:27:03;11.70;99.90
19522;DHT22;9905;52.126;5.596;2024-03-02T11:29:43;11.80;99.90
19522;DHT22;9905;52.126;5.596;2024-03-02T11:32:14;11.80;99.90
19522;DHT22;9905;52.126;5.596;2024-03-02T11:34:44;11.90;99.90
19522;DHT22;9905;52.126;5.596;2024-03-02T11:37:12;12.00;99.90
19522;DHT22;9905;52.126;5.596;2024-03-02T11:39:39;11.90;99.90
19522;DHT22;9905;52.126;5.596;2024-03-02T11:42:07;12.00;99.90
19522;DHT22;9905;52.126;5.596;2024-03-02T11:44:35;12.00;99.90
19522;DHT22;9905;52.126;5.596;2024-03-02T11:47:06;12.10;99.90
19522;DHT22;9905;52.126;5.596;2024-03-02T11:49:37;12.20;99.90
19522;DHT22;9905;52.126;5.596;2024-03-02T11:52:07;12.30;99.90
19522;DHT22;9905;52.126;5.596;2024-03-02T11:54:35;12.40;99.90
19522;DHT22;9905;52.126;5.596;2024-03-02T11:57:05;12.30;99.90
19522;DHT22;9905;52.126;5.596;2024-03-02T11:59:32;12.40;99.90
19522;DHT22;9905;52.126;5.596;2024-03-02T12:01:59;12.40;99.90
19522;DHT22;9905;52.126;5.596;2024-03-02T12:04:27;12.60;99.90
19522;DHT22;9905;52.126;5.596;2024-03-02T12:06:54;12.50;99.90
19522;DHT22;9905;52.126;5.596;2024-03-02T12:09:23;12.60;99.90
19522;DHT22;9905;52.126;5.596;2024-03-02T12:12:01;12.50;99.90
19522;DHT22;9905;52.126;5.596;2024-03-02T12:14:29;12.60;99.90
19522;DHT22;9905;52.126;5.596;2024-03-02T12:16:55;12.60;99.90
19522;DHT22;9905;52.126;5.596;2024-03-02T12:19:24;12.70;99.90
19522;DHT22;9905;52.126;5.596;2024-03-02T12:21:51;12.70;99.90
19522;DHT22;9905;52.126;5.596;2024-03-02T12:24:18;12.70;99.90
19522;DHT22;9905;52.126;5.596;2024-03-02T12:26:46;12.60;99.90
19522;DHT22;9905;52.126;5.596;2024-03-02T12:29:14;12.60;99.90
19522;DHT22;9905;52.126;5.596;2024-03-02T12:31:42;12.60;99.90
19522;DHT22;9905;52.126;5.596;2024-03-02T12:34:12;12.70;99.90
19522;DHT22;9905;52.126;5.596;2024-03-02T12:36:39;12.90;99.90
19522;DHT22;9905;52.126;5.596;2024-03-02T12:39:07;12.90;99.90
19522;DHT22;9905;52.126;5.596;2024-03-02T12:41:36;13.00;99.90
19522;DHT22;9905;52.126;5.596;2024-03-02T12:44:04;13.00;99.90
19522;DHT22;9905;52.126;5.596;2024-03-02T12:46:31;13.00;99.90
19522;DHT22;9905;52.126;5.596;2024-03-02T12:49:04;13.00;99.90
19522;DHT22;9905;52.126;5.596;2024-03-02T12:51:31;13.10;99.90
19522;DHT22;9905;52.126;5.596;2024-03-02T12:54:00;13.00;99.90
19522;DHT22;9905;52.126;5.596;2024-03-02T12:56:27;12.90;99.90
19522;DHT22;9905;52.126;5.596;2024-03-02T12:58:54;13.00;99.90
19522;DHT22;9905;52.126;5.596;2024-03-02T13:01:22;12.90;99.90
19522;DHT22;9905;52.126;5.596;2024-03-02T13:03:49;12.90;99.90
19522;DHT22;9905;52.126;5.596;2024-03-02T13:06:17;12.90;99.90
19522;DHT22;9905;52.126;5.596;2024-03-02T13:08:45;13.00;99.90
19522;DHT22;9905;52.126;5.596;2024-03-02T13:11:15;13.00;99.90
19522;DHT22;9905;52.126;5.596;2024-03-02T13:13:42;13.10;99.90
19522;DHT22;9905;52.126;5.596;2024-03-02T13:16:09;13.20;99.90
19522;DHT22;9905;52.126;5.596;2024-03-02T13:18:38;13.30;99.90
19522;DHT22;9905;52.126;5.596;2024-03-02T13:21:05;13.30;99.90
19522;DHT22;9905;52.126;5.596;2024-03-02T13:23:32;13.30;99.90
19522;DHT22;9905;52.126;5.596;2024-03-02T13:25:58;13.30;99.90
19522;DHT22;9905;52.126;5.596;2024-03-02T13:28:25;13.40;99.90
19522;DHT22;9905;52.126;5.596;2024-03-02T13:30:52;13.30;99.90
19522;DHT22;9905;52.126;5.596;2024-03-02T13:33:19;13.30;99.90
19522;DHT22;9905;52.126;5.596;2024-03-02T13:35:49;13.20;99.90
19522;DHT22;9905;52.126;5.596;2024-03-02T13:38:16;13.10;99.90
19522;DHT22;9905;52.126;5.596;2024-03-02T13:40:43;13.00;99.90
19522;DHT22;9905;52.126;5.596;2024-03-02T13:43:10;13.10;99.90
19522;DHT22;9905;52.126;5.596;2024-03-02T13:45:37;13.20;99.90
19522;DHT22;9905;52.126;5.596;2024-03-02T13:48:04;13.20;99.90
19522;DHT22;9905;52.126;5.596;2024-03-02T13:50:32;13.20;99.90
19522;DHT22;9905;52.126;5.596;2024-03-02T13:53:00;13.20;99.90
19522;DHT22;9905;52.126;5.596;2024-03-02T13:55:28;13.20;99.90
19522;DHT22;9905;52.126;5.596;2024-03-02T13:57:55;13.30;99.90
19522;DHT22;9905;52.126;5.596;2024-03-02T14:00:22;13.30;99.90
19522;DHT22;9905;52.126;5.596;2024-03-02T14:02:48;13.40;99.90
19522;DHT22;9905;52.126;5.596;2024-03-02T14:05:16;13.50;99.90
19522;DHT22;9905;52.126;5.596;2024-03-02T14:07:44;13.60;99.90
19522;DHT22;9905;52.126;5.596;2024-03-02T14:10:13;13.60;99.90
19522;DHT22;9905;52.126;5.596;2024-03-02T14:12:41;13.60;99.90
19522;DHT22;9905;52.126;5.596;2024-03-02T14:15:08;13.60;99.90
19522;DHT22;9905;52.126;5.596;2024-03-02T14:17:35;13.50;99.90
19522;DHT22;9905;52.126;5.596;2024-03-02T14:20:02;13.60;99.90
19522;DHT22;9905;52.126;5.596;2024-03-02T14:22:30;13.70;99.90
19522;DHT22;9905;52.126;5.596;2024-03-02T14:24:57;13.80;99.90
19522;DHT22;9905;52.126;5.596;2024-03-02T14:27:25;13.80;99.90
19522;DHT22;9905;52.126;5.596;2024-03-02T14:29:52;13.80;99.90
19522;DHT22;9905;52.126;5.596;2024-03-02T14:32:18;13.90;99.90
19522;DHT22;9905;52.126;5.596;2024-03-02T14:34:45;13.80;99.90
19522;DHT22;9905;52.126;5.596;2024-03-02T14:37:12;13.80;99.90
19522;DHT22;9905;52.126;5.596;2024-03-02T14:39:39;13.90;99.90
19522;DHT22;9905;52.126;5.596;2024-03-02T14:42:06;13.90;99.90
19522;DHT22;9905;52.126;5.596;2024-03-02T14:44:34;14.00;99.90
19522;DHT22;9905;52.126;5.596;2024-03-02T14:47:01;14.00;99.90
19522;DHT22;9905;52.126;5.596;2024-03-02T14:49:29;14.10;99.90
19522;DHT22;9905;52.126;5.596;2024-03-02T14:51:56;14.20;99.90
19522;DHT22;9905;52.126;5.596;2024-03-02T14:54:23;14.20;99.90
19522;DHT22;9905;52.126;5.596;2024-03-02T14:56:50;14.20;99.90
19522;DHT22;9905;52.126;5.596;2024-03-02T14:59:17;14.20;99.90
19522;DHT22;9905;52.126;5.596;2024-03-02T15:01:45;14.10;99.90
19522;DHT22;9905;52.126;5.596;2024-03-02T15:04:14;14.00;99.90
19522;DHT22;9905;52.126;5.596;2024-03-02T15:06:42;13.90;99.90
19522;DHT22;9905;52.126;5.596;2024-03-02T15:09:08;13.80;99.90
19522;DHT22;9905;52.126;5.596;2024-03-02T15:11:35;13.80;99.90
19522;DHT22;9905;52.126;5.596;2024-03-02T15:14:02;13.80;99.90
19522;DHT22;9905;52.126;5.596;2024-03-02T15:16:29;13.80;99.90
19522;DHT22;9905;52.126;5.596;2024-03-02T15:18:57;13.90;99.90
19522;DHT22;9905;52.126;5.596;2024-03-02T15:21:24;13.80;99.90
19522;DHT22;9905;52.126;5.596;2024-03-02T15:23:50;13.80;99.90
19522;DHT22;9905;52.126;5.596;2024-03-02T15:26:17;13.80;99.90
19522;DHT22;9905;52.126;5.596;2024-03-02T15:28:44;13.70;99.90
19522;DHT22;9905;52.126;5.596;2024-03-02T15:31:11;13.60;99.90
19522;DHT22;9905;52.126;5.596;2024-03-02T15:33:37;13.60;99.90
19522;DHT22;9905;52.126;5.596;2024-03-02T15:36:06;13.60;99.90
19522;DHT22;9905;52.126;5.596;2024-03-02T15:38:33;13.70;99.90
19522;DHT22;9905;52.126;5.596;2024-03-02T15:41:03;13.70;99.90
19522;DHT22;9905;52.126;5.596;2024-03-02T15:43:29;13.70;99.90
19522;DHT22;9905;52.126;5.596;2024-03-02T15:45:57;13.70;99.90
19522;DHT22;9905;52.126;5.596;2024-03-02T15:48:24;13.70;99.90
19522;DHT22;9905;52.126;5.596;2024-03-02T15:50:50;13.60;99.90
19522;DHT22;9905;52.126;5.596;2024-03-02T15:53:19;13.60;99.90
19522;DHT22;9905;52.126;5.596;2024-03-02T15:55:46;13.50;99.90
19522;DHT22;9905;52.126;5.596;2024-03-02T15:58:13;13.50;99.90